createdAt,value
2016-07-07T00:00:00.701Z,15.2
2016-07-07T00:00:10.075Z,15.1
2016-07-07T00:00:20.710Z,15
2016-07-07T00:00:30.706Z,15.1
2016-07-07T00:00:40.700Z,15.1
2016-07-07T00:00:50.707Z,15.1
2016-07-07T00:01:00.070Z,15.2
2016-07-07T00:01:10.075Z,15.1
2016-07-07T00:01:20.723Z,15.1
2016-07-07T00:01:30.718Z,15.1
2016-07-07T00:01:40.719Z,15.1
2016-07-07T00:01:50.086Z,15.1
2016-07-07T00:02:00.730Z,15
2016-07-07T00:02:10.730Z,15.1
2016-07-07T00:02:20.729Z,15
2016-07-07T00:02:30.095Z,15.1
2016-07-07T00:02:40.734Z,15
2016-07-07T00:02:50.736Z,15.1
2016-07-07T00:03:00.756Z,15.1
2016-07-07T00:03:10.741Z,15.1
2016-07-07T00:03:20.740Z,15
2016-07-07T00:03:30.747Z,15.1
2016-07-07T00:03:40.738Z,15
2016-07-07T00:03:50.757Z,15.1
2016-07-07T00:04:00.754Z,15.1
2016-07-07T00:04:10.756Z,14.9
2016-07-07T00:04:20.761Z,15
2016-07-07T00:04:30.769Z,15
2016-07-07T00:04:40.762Z,15
2016-07-07T00:04:50.765Z,15
2016-07-07T00:05:00.769Z,15
2016-07-07T00:05:10.130Z,15
2016-07-07T00:05:20.140Z,15
2016-07-07T00:05:30.133Z,15.1
2016-07-07T00:05:40.778Z,15
2016-07-07T00:05:50.781Z,15
2016-07-07T00:06:00.778Z,15
2016-07-07T00:06:10.782Z,15
2016-07-07T00:06:20.783Z,15
2016-07-07T00:06:30.150Z,15
2016-07-07T00:06:40.791Z,15
2016-07-07T00:06:50.802Z,15
2016-07-07T00:07:00.793Z,15
2016-07-07T00:07:10.797Z,15.1
2016-07-07T00:07:20.797Z,15
2016-07-07T00:07:30.802Z,15
2016-07-07T00:07:40.800Z,15
2016-07-07T00:07:50.808Z,15
2016-07-07T00:08:00.805Z,15
2016-07-07T00:08:10.805Z,15
2016-07-07T00:08:20.799Z,14.9
2016-07-07T00:08:30.166Z,15.1
2016-07-07T00:08:40.813Z,15
2016-07-07T00:08:50.815Z,15
2016-07-07T00:09:00.821Z,15
2016-07-07T00:09:10.820Z,15
2016-07-07T00:09:20.179Z,15.1
2016-07-07T00:09:30.818Z,15
2016-07-07T00:09:40.814Z,15
2016-07-07T00:09:50.849Z,15
2016-07-07T00:10:00.834Z,15
2016-07-07T00:10:10.838Z,15
2016-07-07T00:10:20.833Z,15
2016-07-07T00:10:30.836Z,15
2016-07-07T00:10:40.833Z,15
2016-07-07T00:10:50.841Z,15
2016-07-07T00:11:00.832Z,15
2016-07-07T00:11:10.841Z,14.9
2016-07-07T00:11:20.849Z,14.9
2016-07-07T00:11:30.851Z,15
2016-07-07T00:11:40.948Z,15
2016-07-07T00:11:50.841Z,15
2016-07-07T00:12:00.859Z,15
2016-07-07T00:12:10.862Z,15
2016-07-07T00:12:20.860Z,15
2016-07-07T00:12:30.848Z,14.9
2016-07-07T00:12:40.867Z,14.9
2016-07-07T00:12:50.871Z,15
2016-07-07T00:13:00.866Z,14.9
2016-07-07T00:13:10.872Z,14.9
2016-07-07T00:13:20.880Z,15
2016-07-07T00:13:30.874Z,15
2016-07-07T00:13:40.880Z,15
2016-07-07T00:13:50.237Z,15
2016-07-07T00:14:00.871Z,14.9
2016-07-07T00:14:10.885Z,14.9
2016-07-07T00:14:20.887Z,14.9
2016-07-07T00:14:30.889Z,14.9
2016-07-07T00:14:40.890Z,14.9
2016-07-07T00:14:50.892Z,14.9
2016-07-07T00:15:00.898Z,15
2016-07-07T00:15:10.268Z,15
2016-07-07T00:15:20.262Z,14.9
2016-07-07T00:15:30.908Z,14.9
2016-07-07T00:15:40.893Z,15
2016-07-07T00:15:50.915Z,15
2016-07-07T00:16:00.284Z,15
2016-07-07T00:16:10.364Z,15
2016-07-07T00:16:20.287Z,15
2016-07-07T00:16:30.293Z,14.9
2016-07-07T00:16:40.285Z,15
2016-07-07T00:16:50.915Z,14.9
2016-07-07T00:17:00.917Z,14.9
2016-07-07T00:17:10.928Z,14.9
2016-07-07T00:17:20.928Z,14.9
2016-07-07T00:17:30.289Z,15
2016-07-07T00:17:40.927Z,14.9
2016-07-07T00:17:50.926Z,14.9
2016-07-07T00:18:00.927Z,14.9
2016-07-07T00:18:10.935Z,15
2016-07-07T00:18:20.932Z,15
2016-07-07T00:18:30.943Z,14.9
2016-07-07T00:18:40.934Z,15
2016-07-07T00:18:50.958Z,15
2016-07-07T00:19:00.951Z,14.9
2016-07-07T00:19:10.941Z,14.9
2016-07-07T00:19:20.318Z,14.9
2016-07-07T00:19:30.955Z,14.9
2016-07-07T00:19:40.958Z,14.9
2016-07-07T00:19:50.965Z,14.9
2016-07-07T00:20:00.959Z,15
2016-07-07T00:20:10.959Z,14.8
2016-07-07T00:20:20.967Z,14.9
2016-07-07T00:20:30.325Z,14.9
2016-07-07T00:20:40.965Z,14.9
2016-07-07T00:20:50.960Z,14.9
2016-07-07T00:21:00.325Z,14.9
2016-07-07T00:21:10.978Z,14.8
2016-07-07T00:21:20.967Z,14.8
2016-07-07T00:21:30.980Z,14.8
2016-07-07T00:21:40.349Z,14.8
2016-07-07T00:21:50.979Z,14.8
2016-07-07T00:22:00.975Z,14.8
2016-07-07T00:22:10.991Z,14.8
2016-07-07T00:22:20.978Z,14.8
2016-07-07T00:22:30.997Z,14.8
2016-07-07T00:22:40.999Z,14.8
2016-07-07T00:22:51.001Z,14.8
2016-07-07T00:23:01.002Z,14.8
2016-07-07T00:23:11.006Z,14.8
2016-07-07T00:23:20.995Z,14.8
2016-07-07T00:23:31.014Z,14.7
2016-07-07T00:23:41.000Z,14.8
2016-07-07T00:23:51.009Z,14.7
2016-07-07T00:24:01.007Z,14.7
2016-07-07T00:24:11.020Z,14.7
2016-07-07T00:24:21.015Z,14.7
2016-07-07T00:24:31.020Z,14.7
2016-07-07T00:24:41.025Z,14.7
2016-07-07T00:24:51.028Z,14.8
2016-07-07T00:25:01.024Z,14.8
2016-07-07T00:25:10.394Z,14.8
2016-07-07T00:25:21.030Z,14.7
2016-07-07T00:25:30.404Z,14.7
2016-07-07T00:25:41.037Z,14.8
2016-07-07T00:25:51.039Z,14.7
2016-07-07T00:26:01.046Z,14.8
2016-07-07T00:26:11.049Z,14.8
2016-07-07T00:26:21.050Z,14.8
2016-07-07T00:26:31.049Z,14.7
2016-07-07T00:26:41.053Z,14.7
2016-07-07T00:26:51.054Z,14.7
2016-07-07T00:27:00.421Z,14.6
2016-07-07T00:27:11.064Z,14.7
2016-07-07T00:27:21.059Z,14.6
2016-07-07T00:27:31.064Z,14.7
2016-07-07T00:27:41.064Z,14.7
2016-07-07T00:27:51.073Z,14.7
2016-07-07T00:28:01.067Z,14.6
2016-07-07T00:28:11.066Z,14.6
2016-07-07T00:28:21.073Z,14.6
2016-07-07T00:28:31.074Z,14.6
2016-07-07T00:28:41.074Z,14.6
2016-07-07T00:28:51.080Z,14.7
2016-07-07T00:29:01.088Z,14.6
2016-07-07T00:29:11.087Z,14.6
2016-07-07T00:29:20.449Z,14.6
2016-07-07T00:29:31.089Z,14.7
2016-07-07T00:29:41.091Z,14.6
2016-07-07T00:29:51.082Z,14.6
2016-07-07T00:30:01.081Z,14.6
2016-07-07T00:30:11.084Z,14.6
2016-07-07T00:30:20.446Z,14.6
2016-07-07T00:30:31.092Z,14.6
2016-07-07T00:30:41.096Z,14.6
2016-07-07T00:30:51.093Z,14.6
2016-07-07T00:31:01.098Z,14.6
2016-07-07T00:31:11.096Z,14.6
2016-07-07T00:31:21.103Z,14.6
2016-07-07T00:31:31.098Z,14.6
2016-07-07T00:31:41.104Z,14.6
2016-07-07T00:31:51.105Z,14.5
2016-07-07T00:32:01.107Z,14.5
2016-07-07T00:32:11.115Z,14.5
2016-07-07T00:32:21.109Z,14.6
2016-07-07T00:32:30.482Z,14.6
2016-07-07T00:32:41.119Z,14.6
2016-07-07T00:32:51.121Z,14.5
2016-07-07T00:33:01.122Z,14.5
2016-07-07T00:33:11.122Z,14.6
2016-07-07T00:33:20.490Z,14.5
2016-07-07T00:33:31.128Z,14.6
2016-07-07T00:33:41.135Z,14.5
2016-07-07T00:33:51.133Z,14.5
2016-07-07T00:34:01.131Z,14.5
2016-07-07T00:34:10.500Z,14.5
2016-07-07T00:34:21.135Z,14.5
2016-07-07T00:34:31.143Z,14.5
2016-07-07T00:34:41.138Z,14.5
2016-07-07T00:34:51.141Z,14.6
2016-07-07T00:35:01.156Z,14.6
2016-07-07T00:35:11.153Z,14.5
2016-07-07T00:35:21.159Z,14.6
2016-07-07T00:35:31.159Z,14.5
2016-07-07T00:35:41.166Z,14.5
2016-07-07T00:35:51.167Z,14.5
2016-07-07T00:36:01.167Z,14.5
2016-07-07T00:36:11.161Z,14.5
2016-07-07T00:36:21.171Z,14.5
2016-07-07T00:36:31.175Z,14.6
2016-07-07T00:36:41.179Z,14.6
2016-07-07T00:36:51.181Z,14.6
2016-07-07T00:37:01.173Z,14.5
2016-07-07T00:37:10.553Z,14.5
2016-07-07T00:37:21.189Z,14.5
2016-07-07T00:37:31.185Z,14.5
2016-07-07T00:37:41.191Z,14.5
2016-07-07T00:37:51.198Z,14.5
2016-07-07T00:38:01.198Z,14.5
2016-07-07T00:38:11.204Z,14.5
2016-07-07T00:38:21.199Z,14.5
2016-07-07T00:38:31.201Z,14.5
2016-07-07T00:38:41.202Z,14.5
2016-07-07T00:38:51.208Z,14.4
2016-07-07T00:39:01.215Z,14.4
2016-07-07T00:39:11.210Z,14.4
2016-07-07T00:39:21.212Z,14.5
2016-07-07T00:39:31.221Z,14.4
2016-07-07T00:39:41.219Z,14.4
2016-07-07T00:39:51.221Z,14.4
2016-07-07T00:40:01.224Z,14.5
2016-07-07T00:40:11.221Z,14.3
2016-07-07T00:40:21.225Z,14.5
2016-07-07T00:40:31.226Z,14.4
2016-07-07T00:40:41.244Z,14.4
2016-07-07T00:40:51.229Z,14.4
2016-07-07T00:41:01.237Z,14.5
2016-07-07T00:41:11.235Z,14.5
2016-07-07T00:41:20.615Z,14.4
2016-07-07T00:41:31.246Z,14.3
2016-07-07T00:41:41.245Z,14.4
2016-07-07T00:41:51.247Z,14.3
2016-07-07T00:42:01.246Z,14.3
2016-07-07T00:42:10.615Z,14.4
2016-07-07T00:42:21.254Z,14.4
2016-07-07T00:42:31.256Z,14.5
2016-07-07T00:42:41.255Z,14.3
2016-07-07T00:42:51.254Z,14.4
2016-07-07T00:43:01.260Z,14.4
2016-07-07T00:43:11.263Z,14.4
2016-07-07T00:43:21.263Z,14.5
2016-07-07T00:43:31.271Z,14.4
2016-07-07T00:43:40.630Z,14.4
2016-07-07T00:43:51.272Z,14.3
2016-07-07T00:44:01.279Z,14.4
2016-07-07T00:44:10.640Z,14.4
2016-07-07T00:44:21.272Z,14.3
2016-07-07T00:44:30.650Z,14.3
2016-07-07T00:44:41.281Z,14.4
2016-07-07T00:44:51.287Z,14.3
2016-07-07T00:45:00.651Z,14.3
2016-07-07T00:45:11.289Z,14.3
2016-07-07T00:45:21.286Z,14.3
2016-07-07T00:45:31.297Z,14.3
2016-07-07T00:45:41.295Z,14.3
2016-07-07T00:45:51.297Z,14.4
2016-07-07T00:46:01.297Z,14.3
2016-07-07T00:46:10.666Z,14.3
2016-07-07T00:46:21.305Z,14.3
2016-07-07T00:46:31.306Z,14.4
2016-07-07T00:46:41.309Z,14.3
2016-07-07T00:46:51.311Z,14.3
2016-07-07T00:47:01.306Z,14.3
2016-07-07T00:47:11.308Z,14.4
2016-07-07T00:47:21.316Z,14.3
2016-07-07T00:47:31.316Z,14.3
2016-07-07T00:47:41.320Z,14.3
2016-07-07T00:47:51.323Z,14.3
2016-07-07T00:48:01.323Z,14.3
2016-07-07T00:48:10.687Z,14.3
2016-07-07T00:48:20.692Z,14.3
2016-07-07T00:48:31.329Z,14.3
2016-07-07T00:48:40.699Z,14.3
2016-07-07T00:48:51.334Z,14.3
2016-07-07T00:49:01.335Z,14.3
2016-07-07T00:49:11.339Z,14.3
2016-07-07T00:49:21.344Z,14.3
2016-07-07T00:49:31.346Z,14.3
2016-07-07T00:49:41.342Z,14.3
2016-07-07T00:49:51.349Z,14.3
2016-07-07T00:50:01.346Z,14.3
2016-07-07T00:50:11.356Z,14.3
2016-07-07T00:50:21.357Z,14.3
2016-07-07T00:50:31.353Z,14.3
2016-07-07T00:50:41.343Z,14.3
2016-07-07T00:50:51.347Z,14.3
2016-07-07T00:51:01.361Z,14.2
2016-07-07T00:51:10.725Z,14.2
2016-07-07T00:51:21.358Z,14.3
2016-07-07T00:51:31.370Z,14.3
2016-07-07T00:51:41.369Z,14.3
2016-07-07T00:51:50.739Z,14.2
2016-07-07T00:52:01.376Z,14.3
2016-07-07T00:52:11.371Z,14.3
2016-07-07T00:52:21.380Z,14.2
2016-07-07T00:52:31.380Z,14.3
2016-07-07T00:52:41.392Z,14.3
2016-07-07T00:52:51.387Z,14.2
2016-07-07T00:53:01.389Z,14.3
2016-07-07T00:53:11.389Z,14.3
2016-07-07T00:53:21.392Z,14.3
2016-07-07T00:53:31.395Z,14.3
2016-07-07T00:53:41.395Z,14.2
2016-07-07T00:53:51.396Z,14.2
2016-07-07T00:54:01.399Z,14.3
2016-07-07T00:54:11.401Z,14.2
2016-07-07T00:54:21.407Z,14.2
2016-07-07T00:54:31.405Z,14.2
2016-07-07T00:54:41.412Z,14.2
2016-07-07T00:54:51.406Z,14.2
2016-07-07T00:55:01.417Z,14.2
2016-07-07T00:55:11.409Z,14.2
2016-07-07T00:55:20.773Z,14.1
2016-07-07T00:55:31.419Z,14.2
2016-07-07T00:55:41.417Z,14.2
2016-07-07T00:55:51.421Z,14.2
2016-07-07T00:56:01.428Z,14.2
2016-07-07T00:56:10.795Z,14.2
2016-07-07T00:56:21.424Z,14.1
2016-07-07T00:56:31.428Z,14.2
2016-07-07T00:56:41.433Z,14.1
2016-07-07T00:56:51.442Z,14.1
2016-07-07T00:57:01.434Z,14.1
2016-07-07T00:57:11.435Z,14.2
2016-07-07T00:57:21.435Z,14.1
2016-07-07T00:57:31.433Z,14.1
2016-07-07T00:57:41.448Z,14.2
2016-07-07T00:57:51.447Z,14.2
2016-07-07T00:58:01.437Z,14.2
2016-07-07T00:58:11.442Z,14.2
2016-07-07T00:58:21.450Z,14.2
2016-07-07T00:58:30.810Z,14.1
2016-07-07T00:58:41.462Z,14.1
2016-07-07T00:58:51.460Z,14.2
2016-07-07T00:59:01.464Z,14.2
2016-07-07T00:59:11.463Z,14.1
2016-07-07T00:59:21.466Z,14.2
2016-07-07T00:59:31.468Z,14.2
2016-07-07T00:59:41.468Z,14.1
2016-07-07T00:59:51.475Z,14.2
2016-07-07T01:00:01.478Z,14.2
2016-07-07T01:00:11.461Z,14.1
2016-07-07T01:00:21.466Z,14.2
2016-07-07T01:00:31.485Z,14.2
2016-07-07T01:00:41.472Z,14.2
2016-07-07T01:00:51.478Z,14.2
2016-07-07T01:01:01.482Z,14.2
2016-07-07T01:01:10.848Z,14.2
2016-07-07T01:01:21.492Z,14.2
2016-07-07T01:01:30.852Z,14.1
2016-07-07T01:01:41.482Z,14.2
2016-07-07T01:01:51.498Z,14.1
2016-07-07T01:02:01.505Z,14.1
2016-07-07T01:02:11.498Z,14.1
2016-07-07T01:02:20.861Z,14.1
2016-07-07T01:02:30.864Z,14.1
2016-07-07T01:02:41.509Z,14.2
2016-07-07T01:02:51.503Z,14.1
2016-07-07T01:03:01.500Z,14.1
2016-07-07T01:03:10.868Z,14.1
2016-07-07T01:03:21.509Z,14.1
2016-07-07T01:03:31.515Z,14.1
2016-07-07T01:03:41.515Z,14
2016-07-07T01:03:51.516Z,14.1
2016-07-07T01:04:01.516Z,14.1
2016-07-07T01:04:11.515Z,14
2016-07-07T01:04:21.523Z,14.1
2016-07-07T01:04:31.524Z,14.1
2016-07-07T01:04:41.535Z,14.1
2016-07-07T01:04:50.894Z,14.1
2016-07-07T01:05:01.530Z,14
2016-07-07T01:05:11.526Z,14.2
2016-07-07T01:05:21.533Z,14.1
2016-07-07T01:05:31.538Z,14.1
2016-07-07T01:05:41.540Z,14.1
2016-07-07T01:05:50.908Z,14.1
2016-07-07T01:06:01.541Z,14.1
2016-07-07T01:06:11.540Z,14.1
2016-07-07T01:06:21.541Z,14.1
2016-07-07T01:06:31.547Z,14.1
2016-07-07T01:06:40.913Z,14.1
2016-07-07T01:06:50.917Z,14.1
2016-07-07T01:07:01.558Z,14
2016-07-07T01:07:11.555Z,14
2016-07-07T01:07:21.558Z,14
2016-07-07T01:07:31.562Z,14.1
2016-07-07T01:07:41.569Z,14
2016-07-07T01:07:51.563Z,14.1
2016-07-07T01:08:01.564Z,14.1
2016-07-07T01:08:11.569Z,14
2016-07-07T01:08:21.567Z,14
2016-07-07T01:08:31.572Z,14.1
2016-07-07T01:08:41.570Z,14.1
2016-07-07T01:08:51.574Z,14
2016-07-07T01:09:00.937Z,14.1
2016-07-07T01:09:11.575Z,14
2016-07-07T01:09:21.588Z,14.1
2016-07-07T01:09:31.583Z,14
2016-07-07T01:09:41.591Z,14.1
2016-07-07T01:09:51.584Z,14.1
2016-07-07T01:10:01.599Z,14.1
2016-07-07T01:10:11.607Z,14.1
2016-07-07T01:10:21.591Z,14
2016-07-07T01:10:31.592Z,14
2016-07-07T01:10:41.596Z,14.1
2016-07-07T01:10:51.612Z,14.1
2016-07-07T01:11:01.613Z,14
2016-07-07T01:11:11.614Z,14
2016-07-07T01:11:21.616Z,14.1
2016-07-07T01:11:31.609Z,14.1
2016-07-07T01:11:41.621Z,14.1
2016-07-07T01:11:51.626Z,14.1
2016-07-07T01:12:01.624Z,14.1
2016-07-07T01:12:11.627Z,14.1
2016-07-07T01:12:21.626Z,14
2016-07-07T01:12:31.615Z,14
2016-07-07T01:12:41.635Z,14.1
2016-07-07T01:12:51.635Z,14
2016-07-07T01:13:01.636Z,14
2016-07-07T01:13:11.632Z,14
2016-07-07T01:13:21.647Z,14
2016-07-07T01:13:31.645Z,13.9
2016-07-07T01:13:41.644Z,14
2016-07-07T01:13:51.649Z,14
2016-07-07T01:14:01.652Z,14
2016-07-07T01:14:11.652Z,14
2016-07-07T01:14:21.643Z,14
2016-07-07T01:14:31.643Z,14
2016-07-07T01:14:41.010Z,13.9
2016-07-07T01:14:51.652Z,13.9
2016-07-07T01:15:01.660Z,14
2016-07-07T01:15:11.667Z,14.1
2016-07-07T01:15:21.667Z,13.9
2016-07-07T01:15:31.666Z,14
2016-07-07T01:15:41.663Z,13.9
2016-07-07T01:15:51.664Z,13.9
2016-07-07T01:16:01.667Z,13.9
2016-07-07T01:16:11.663Z,13.9
2016-07-07T01:16:21.674Z,14
2016-07-07T01:16:31.674Z,14
2016-07-07T01:16:41.706Z,13.9
2016-07-07T01:16:51.684Z,14
2016-07-07T01:17:01.050Z,14
2016-07-07T01:17:11.687Z,13.9
2016-07-07T01:17:21.681Z,14
2016-07-07T01:17:31.683Z,13.9
2016-07-07T01:17:41.693Z,14
2016-07-07T01:17:51.702Z,13.9
2016-07-07T01:18:01.067Z,13.9
2016-07-07T01:18:11.701Z,13.9
2016-07-07T01:18:21.701Z,13.9
2016-07-07T01:18:31.706Z,13.9
2016-07-07T01:18:41.707Z,13.9
2016-07-07T01:18:51.707Z,13.9
2016-07-07T01:19:01.712Z,14
2016-07-07T01:19:11.076Z,13.9
2016-07-07T01:19:21.715Z,13.9
2016-07-07T01:19:31.711Z,13.9
2016-07-07T01:19:41.722Z,13.9
2016-07-07T01:19:51.713Z,13.9
2016-07-07T01:20:01.719Z,13.9
2016-07-07T01:20:11.724Z,13.9
2016-07-07T01:20:21.726Z,13.9
2016-07-07T01:20:31.096Z,13.9
2016-07-07T01:20:41.731Z,13.9
2016-07-07T01:20:51.733Z,13.9
2016-07-07T01:21:01.736Z,13.9
2016-07-07T01:21:11.733Z,13.9
2016-07-07T01:21:21.740Z,13.9
2016-07-07T01:21:31.729Z,13.9
2016-07-07T01:21:41.733Z,13.9
2016-07-07T01:21:51.737Z,13.9
2016-07-07T01:22:01.751Z,13.9
2016-07-07T01:22:11.112Z,13.9
2016-07-07T01:22:21.742Z,13.9
2016-07-07T01:22:31.112Z,13.9
2016-07-07T01:22:41.744Z,13.9
2016-07-07T01:22:51.745Z,13.9
2016-07-07T01:23:01.747Z,13.9
2016-07-07T01:23:11.754Z,13.9
2016-07-07T01:23:21.758Z,13.9
2016-07-07T01:23:31.768Z,13.9
2016-07-07T01:23:41.754Z,13.9
2016-07-07T01:23:51.758Z,13.9
2016-07-07T01:24:01.762Z,13.9
2016-07-07T01:24:11.779Z,13.9
2016-07-07T01:24:21.764Z,13.9
2016-07-07T01:24:31.784Z,13.9
2016-07-07T01:24:41.777Z,13.9
2016-07-07T01:24:51.783Z,13.9
2016-07-07T01:25:01.787Z,13.9
2016-07-07T01:25:11.141Z,13.9
2016-07-07T01:25:21.792Z,13.9
2016-07-07T01:25:31.797Z,13.9
2016-07-07T01:25:41.794Z,13.9
2016-07-07T01:25:51.797Z,13.9
2016-07-07T01:26:01.808Z,13.9
2016-07-07T01:26:11.801Z,13.9
2016-07-07T01:26:21.172Z,13.9
2016-07-07T01:26:31.805Z,13.9
2016-07-07T01:26:41.802Z,13.9
2016-07-07T01:26:51.167Z,13.9
2016-07-07T01:27:01.806Z,13.9
2016-07-07T01:27:11.183Z,13.9
2016-07-07T01:27:21.813Z,13.9
2016-07-07T01:27:31.821Z,13.9
2016-07-07T01:27:41.182Z,13.9
2016-07-07T01:27:51.822Z,13.9
2016-07-07T01:28:01.826Z,13.9
2016-07-07T01:28:11.824Z,13.9
2016-07-07T01:28:21.187Z,13.9
2016-07-07T01:28:31.825Z,13.8
2016-07-07T01:28:41.821Z,13.9
2016-07-07T01:28:51.836Z,13.8
2016-07-07T01:29:01.198Z,13.9
2016-07-07T01:29:11.851Z,13.9
2016-07-07T01:29:21.849Z,13.9
2016-07-07T01:29:31.841Z,13.8
2016-07-07T01:29:41.845Z,13.9
2016-07-07T01:29:51.842Z,13.8
2016-07-07T01:30:01.854Z,13.9
2016-07-07T01:30:11.848Z,13.9
2016-07-07T01:30:21.854Z,13.9
2016-07-07T01:30:31.869Z,13.8
2016-07-07T01:30:41.220Z,13.9
2016-07-07T01:30:51.857Z,13.9
2016-07-07T01:31:01.859Z,13.9
2016-07-07T01:31:11.211Z,13.9
2016-07-07T01:31:21.230Z,13.8
2016-07-07T01:31:31.859Z,13.8
2016-07-07T01:31:41.865Z,13.8
2016-07-07T01:31:51.230Z,13.8
2016-07-07T01:32:01.872Z,13.9
2016-07-07T01:32:11.877Z,13.8
2016-07-07T01:32:21.876Z,13.8
2016-07-07T01:32:31.865Z,13.8
2016-07-07T01:32:41.866Z,13.8
2016-07-07T01:32:51.870Z,13.9
2016-07-07T01:33:01.884Z,13.8
2016-07-07T01:33:11.874Z,13.9
2016-07-07T01:33:21.237Z,13.8
2016-07-07T01:33:31.887Z,13.8
2016-07-07T01:33:41.882Z,13.8
2016-07-07T01:33:51.884Z,13.8
2016-07-07T01:34:01.885Z,13.8
2016-07-07T01:34:11.886Z,13.7
2016-07-07T01:34:21.251Z,13.8
2016-07-07T01:34:31.899Z,13.8
2016-07-07T01:34:41.903Z,13.7
2016-07-07T01:34:51.909Z,13.9
2016-07-07T01:35:01.907Z,13.7
2016-07-07T01:35:11.910Z,13.8
2016-07-07T01:35:21.904Z,13.8
2016-07-07T01:35:31.915Z,13.8
2016-07-07T01:35:41.282Z,13.8
2016-07-07T01:35:51.920Z,13.8
2016-07-07T01:36:01.918Z,13.8
2016-07-07T01:36:11.292Z,13.8
2016-07-07T01:36:21.926Z,13.8
2016-07-07T01:36:31.927Z,13.7
2016-07-07T01:36:41.949Z,13.8
2016-07-07T01:36:51.934Z,13.7
2016-07-07T01:37:01.302Z,13.8
2016-07-07T01:37:11.941Z,13.8
2016-07-07T01:37:21.936Z,13.7
2016-07-07T01:37:31.943Z,13.8
2016-07-07T01:37:41.307Z,13.7
2016-07-07T01:37:51.939Z,13.7
2016-07-07T01:38:01.944Z,13.7
2016-07-07T01:38:11.951Z,13.8
2016-07-07T01:38:21.949Z,13.7
2016-07-07T01:38:31.949Z,13.7
2016-07-07T01:38:41.955Z,13.8
2016-07-07T01:38:51.319Z,13.8
2016-07-07T01:39:01.959Z,13.7
2016-07-07T01:39:11.956Z,13.7
2016-07-07T01:39:21.961Z,13.8
2016-07-07T01:39:31.963Z,13.7
2016-07-07T01:39:41.963Z,13.7
2016-07-07T01:39:51.967Z,13.7
2016-07-07T01:40:01.322Z,13.8
2016-07-07T01:40:11.971Z,13.7
2016-07-07T01:40:21.971Z,13.7
2016-07-07T01:40:31.977Z,13.9
2016-07-07T01:40:41.965Z,13.8
2016-07-07T01:40:51.971Z,13.8
2016-07-07T01:41:01.968Z,13.8
2016-07-07T01:41:11.972Z,13.8
2016-07-07T01:41:21.984Z,13.8
2016-07-07T01:41:31.992Z,13.8
2016-07-07T01:41:41.988Z,13.8
2016-07-07T01:41:51.981Z,13.8
2016-07-07T01:42:01.998Z,13.8
2016-07-07T01:42:11.994Z,13.8
2016-07-07T01:42:22.006Z,13.7
2016-07-07T01:42:32.006Z,13.6
2016-07-07T01:42:41.997Z,13.7
2016-07-07T01:42:52.006Z,13.7
2016-07-07T01:43:02.009Z,13.7
2016-07-07T01:43:12.006Z,13.8
2016-07-07T01:43:22.011Z,13.7
2016-07-07T01:43:32.022Z,13.8
2016-07-07T01:43:42.017Z,13.7
2016-07-07T01:43:51.377Z,13.6
2016-07-07T01:44:02.019Z,13.8
2016-07-07T01:44:12.007Z,13.6
2016-07-07T01:44:22.021Z,13.7
2016-07-07T01:44:32.018Z,13.7
2016-07-07T01:44:41.392Z,13.7
2016-07-07T01:44:52.046Z,13.6
2016-07-07T01:45:02.035Z,13.7
2016-07-07T01:45:12.035Z,13.7
2016-07-07T01:45:22.029Z,13.7
2016-07-07T01:45:32.030Z,13.6
2016-07-07T01:45:42.038Z,13.7
2016-07-07T01:45:52.048Z,13.6
2016-07-07T01:46:02.049Z,13.6
2016-07-07T01:46:12.048Z,13.6
2016-07-07T01:46:22.041Z,13.7
2016-07-07T01:46:32.049Z,13.7
2016-07-07T01:46:42.043Z,13.6
2016-07-07T01:46:52.046Z,13.6
2016-07-07T01:47:02.045Z,13.7
2016-07-07T01:47:12.057Z,13.6
2016-07-07T01:47:22.057Z,13.6
2016-07-07T01:47:32.069Z,13.6
2016-07-07T01:47:42.062Z,13.7
2016-07-07T01:47:52.068Z,13.6
2016-07-07T01:48:02.062Z,13.7
2016-07-07T01:48:12.061Z,13.6
2016-07-07T01:48:22.067Z,13.6
2016-07-07T01:48:32.073Z,13.6
2016-07-07T01:48:41.431Z,13.6
2016-07-07T01:48:51.442Z,13.5
2016-07-07T01:49:01.446Z,13.6
2016-07-07T01:49:12.081Z,13.6
2016-07-07T01:49:21.441Z,13.5
2016-07-07T01:49:32.089Z,13.6
2016-07-07T01:49:42.085Z,13.6
2016-07-07T01:49:52.094Z,13.6
2016-07-07T01:50:02.098Z,13.5
2016-07-07T01:50:12.099Z,13.6
2016-07-07T01:50:22.098Z,13.6
2016-07-07T01:50:32.091Z,13.6
2016-07-07T01:50:42.097Z,13.6
2016-07-07T01:50:52.106Z,13.6
2016-07-07T01:51:02.104Z,13.6
2016-07-07T01:51:12.098Z,13.6
2016-07-07T01:51:22.109Z,13.5
2016-07-07T01:51:32.109Z,13.5
2016-07-07T01:51:41.473Z,13.6
2016-07-07T01:51:52.113Z,13.6
2016-07-07T01:52:02.114Z,13.5
2016-07-07T01:52:11.482Z,13.6
2016-07-07T01:52:22.121Z,13.6
2016-07-07T01:52:32.122Z,13.6
2016-07-07T01:52:42.118Z,13.6
2016-07-07T01:52:51.491Z,13.6
2016-07-07T01:53:02.130Z,13.5
2016-07-07T01:53:12.137Z,13.5
2016-07-07T01:53:22.134Z,13.6
2016-07-07T01:53:31.504Z,13.5
2016-07-07T01:53:42.133Z,13.5
2016-07-07T01:53:52.133Z,13.6
2016-07-07T01:54:02.148Z,13.5
2016-07-07T01:54:12.146Z,13.5
2016-07-07T01:54:22.142Z,13.5
2016-07-07T01:54:32.149Z,13.5
2016-07-07T01:54:41.506Z,13.6
2016-07-07T01:54:52.152Z,13.6
2016-07-07T01:55:02.157Z,13.6
2016-07-07T01:55:11.521Z,13.6
2016-07-07T01:55:22.154Z,13.5
2016-07-07T01:55:32.158Z,13.5
2016-07-07T01:55:42.159Z,13.5
2016-07-07T01:55:52.157Z,13.5
2016-07-07T01:56:02.160Z,13.5
2016-07-07T01:56:12.165Z,13.4
2016-07-07T01:56:22.159Z,13.5
2016-07-07T01:56:32.162Z,13.5
2016-07-07T01:56:41.531Z,13.4
2016-07-07T01:56:52.168Z,13.4
2016-07-07T01:57:01.531Z,13.5
2016-07-07T01:57:12.172Z,13.5
2016-07-07T01:57:22.172Z,13.5
2016-07-07T01:57:32.186Z,13.5
2016-07-07T01:57:42.179Z,13.5
2016-07-07T01:57:52.174Z,13.5
2016-07-07T01:58:02.185Z,13.5
2016-07-07T01:58:12.182Z,13.4
2016-07-07T01:58:22.187Z,13.4
2016-07-07T01:58:32.191Z,13.5
2016-07-07T01:58:42.192Z,13.4
2016-07-07T01:58:52.188Z,13.5
2016-07-07T01:59:02.191Z,13.4
2016-07-07T01:59:12.199Z,13.5
2016-07-07T01:59:22.196Z,13.4
2016-07-07T01:59:32.205Z,13.4
2016-07-07T01:59:42.200Z,13.5
2016-07-07T01:59:51.570Z,13.4
2016-07-07T02:00:02.211Z,13.4
2016-07-07T02:00:12.210Z,13.5
2016-07-07T02:00:22.212Z,13.5
2016-07-07T02:00:32.216Z,13.4
2016-07-07T02:00:42.214Z,13.4
2016-07-07T02:00:52.219Z,13.5
2016-07-07T02:01:02.217Z,13.4
2016-07-07T02:01:12.231Z,13.4
2016-07-07T02:01:22.224Z,13.4
2016-07-07T02:01:32.216Z,13.5
2016-07-07T02:01:42.224Z,13.4
2016-07-07T02:01:51.590Z,13.4
2016-07-07T02:02:02.227Z,13.4
2016-07-07T02:02:12.229Z,13.4
2016-07-07T02:02:22.238Z,13.4
2016-07-07T02:02:32.239Z,13.4
2016-07-07T02:02:42.240Z,13.4
2016-07-07T02:02:52.252Z,13.4
2016-07-07T02:03:02.246Z,13.4
2016-07-07T02:03:12.243Z,13.4
2016-07-07T02:03:22.251Z,13.5
2016-07-07T02:03:32.251Z,13.4
2016-07-07T02:03:42.255Z,13.4
2016-07-07T02:03:52.256Z,13.4
2016-07-07T02:04:01.619Z,13.4
2016-07-07T02:04:12.263Z,13.4
2016-07-07T02:04:22.258Z,13.4
2016-07-07T02:04:32.261Z,13.4
2016-07-07T02:04:42.266Z,13.4
2016-07-07T02:04:52.262Z,13.4
2016-07-07T02:05:02.268Z,13.4
2016-07-07T02:05:12.271Z,13.4
2016-07-07T02:05:22.270Z,13.4
2016-07-07T02:05:32.276Z,13.4
2016-07-07T02:05:42.280Z,13.4
2016-07-07T02:05:52.274Z,13.3
2016-07-07T02:06:02.291Z,13.4
2016-07-07T02:06:12.379Z,13.3
2016-07-07T02:06:22.283Z,13.4
2016-07-07T02:06:32.285Z,13.3
2016-07-07T02:06:42.296Z,13.4
2016-07-07T02:06:52.284Z,13.4
2016-07-07T02:07:02.296Z,13.3
2016-07-07T02:07:12.293Z,13.3
2016-07-07T02:07:22.304Z,13.4
2016-07-07T02:07:32.304Z,13.4
2016-07-07T02:07:42.305Z,13.4
2016-07-07T02:07:51.668Z,13.4
2016-07-07T02:08:02.310Z,13.3
2016-07-07T02:08:12.301Z,13.3
2016-07-07T02:08:22.307Z,13.4
2016-07-07T02:08:31.668Z,13.4
2016-07-07T02:08:42.316Z,13.3
2016-07-07T02:08:52.314Z,13.3
2016-07-07T02:09:02.328Z,13.4
2016-07-07T02:09:12.322Z,13.4
2016-07-07T02:09:22.324Z,13.4
2016-07-07T02:09:32.321Z,13.4
2016-07-07T02:09:42.324Z,13.3
2016-07-07T02:09:52.327Z,13.3
2016-07-07T02:10:02.334Z,13.4
2016-07-07T02:10:12.332Z,13.3
2016-07-07T02:10:22.347Z,13.4
2016-07-07T02:10:32.337Z,13.4
2016-07-07T02:10:42.349Z,13.4
2016-07-07T02:10:52.349Z,13.4
2016-07-07T02:11:02.348Z,13.4
2016-07-07T02:11:11.717Z,13.4
2016-07-07T02:11:22.352Z,13.4
2016-07-07T02:11:32.343Z,13.4
2016-07-07T02:11:42.353Z,13.4
2016-07-07T02:11:52.346Z,13.3
2016-07-07T02:12:02.347Z,13.4
2016-07-07T02:12:12.355Z,13.4
2016-07-07T02:12:22.356Z,13.3
2016-07-07T02:12:32.362Z,13.3
2016-07-07T02:12:42.361Z,13.4
2016-07-07T02:12:52.358Z,13.4
2016-07-07T02:13:01.737Z,13.3
2016-07-07T02:13:12.366Z,13.4
2016-07-07T02:13:22.369Z,13.4
2016-07-07T02:13:32.367Z,13.3
2016-07-07T02:13:41.733Z,13.4
2016-07-07T02:13:51.737Z,13.4
2016-07-07T02:14:02.377Z,13.3
2016-07-07T02:14:11.736Z,13.4